Parc Sabana, Puerto Rico
Current Conditions -  °F | °C
As of 9:50 AM on Thursday 29 Jan 2015 (Local Time) from TJBQ Reporting Station
Clear Clear  
Wind Chill: 79°   Ceiling: Unl
Heat Index: 81°   Visibility: 10mi
Dew Point: 68°   Wind: 8mph
Humidity: 69%   Direction: 60°ENE
Pressure: 30.07"   Gusts: NA
Location:  18.3946°N, 67.1158°W
Report Text: TJBQ 291350Z 06007KT 10SM SKC 26/20 A3007 RMK RWY 08 ATIS E
Loading
Personal Weather Stations






























Interactive Weather Map New forecast layout! Learn more

10-Day Weather Forecast

Advertisements
Track Severe Weather on mobile